KENW/ENW METAR and TAF weather

Enter ICAO airport designator
Station Type Date Time Source
KENW METAR 2019/04/22 23:53 UTC NOAA

KENW 222353Z 17012KT 10SM -RA SCT090 BKN110 20/15 A2983 RMK AO2 PK WND 21033/2312 WSHFT 2323 RAB13 SLP098 P0003 60003 T02000150 10267 20200 58019


Station Type Date Time Source
KENW Decoded METAR 2019/04/22 23:53 UTC NOAA

KENOSHA REGIONAL AIRPORT, WI, United States (KENW) 42-36N 087-56W 219M
Apr 22, 2019 - 07:53 PM EDT / 2019.04.22 2353 UTC
Wind: from the S (170 degrees) at 14 MPH (12 KT):0
Visibility: 10 mile(s):0
Sky conditions: mostly cloudy
Weather: light rain
Precipitation last hour: 0.03 inches
Temperature: 68.0 F (20.0 C)
Dew Point: 59.0 F (15.0 C)
Relative Humidity: 72%
Pressure (altimeter): 29.83 in. Hg (1010 hPa)
Pressure tendency: 0.06 inches (1.9 hPa) lower than three hours ago
ob: KENW 222353Z 17012KT 10SM -RA SCT090 BKN110 20/15 A2983 RMK AO2 PK WND 21033/2312 WSHFT 2323 RAB13 SLP098 P0003 60003 T02000150 10267 20200 58019
cycle: 0

Station Type Date Time Source
KENW TAF 2019/04/22 21:54 UTC NOAA

TAF
AMD KENW 222051Z 2221/2318 19012G22KT P6SM FEW080 BKN250
FM230000 20009KT 6SM -SHRA VCTS OVC035CB
FM230130 25011KT 5SM -TSRA OVC025CB
FM230500 27008KT P6SM -SHRA OVC009
FM231300 33013KT P6SM OVC012
FM231600 34012KT P6SM BKN025

Example: see airport list